Time;durP1;ratioP1;P1;durP2;ratioP2;P2;SDS_P1;SDS_P2;PMS_P1;PMS_P2;Temp;Humidity;BMP_temperature;BMP_pressure;BME280_temperature;BME280_humidity;BME280_pressure;Samples;Min_cycle;Max_cycle;Signal;HPM_P1;HPM_P2
2022/12/05 00:02:09;;;;;;;7.25;3.60;;;1.50;99.90;;;;;;5002424;28;20079;-32
2022/12/05 00:04:35;;;;;;;3.38;3.10;;;1.50;99.90;;;;;;5001420;28;20037;-31
2022/12/05 00:07:01;;;;;;;5.15;3.28;;;1.50;99.90;;;;;;5001571;28;20676;-31
2022/12/05 00:09:26;;;;;;;4.30;3.05;;;1.50;99.90;;;;;;5002367;28;20029;-34
2022/12/05 00:11:52;;;;;;;10.32;6.13;;;1.40;99.90;;;;;;4999567;28;20018;-34
2022/12/05 00:14:18;;;;;;;10.63;5.53;;;1.50;99.90;;;;;;5004114;28;20095;-31
2022/12/05 00:16:44;;;;;;;13.32;6.22;;;1.50;99.90;;;;;;5004276;28;20033;-34
2022/12/05 00:19:13;;;;;;;10.95;4.25;;;1.50;99.90;;;;;;5002251;28;20109;-35
2022/12/05 00:21:39;;;;;;;8.68;3.67;;;1.40;99.90;;;;;;5001327;28;20033;-32
2022/12/05 00:24:10;;;;;;;4.30;3.55;;;1.40;99.90;;;;;;4999613;28;20437;-34
2022/12/05 00:26:36;;;;;;;12.75;5.80;;;1.40;99.90;;;;;;4998992;28;20078;-31
2022/12/05 00:29:02;;;;;;;4.05;3.28;;;1.40;99.90;;;;;;5000358;28;20482;-31
2022/12/05 00:31:28;;;;;;;6.80;4.25;;;1.40;99.90;;;;;;4998568;28;20030;-31
2022/12/05 00:33:54;;;;;;;11.35;5.47;;;1.40;99.90;;;;;;5018611;28;20037;-31
2022/12/05 00:36:25;;;;;;;9.38;4.38;;;1.40;99.90;;;;;;5006717;28;20038;-34
2022/12/05 00:38:52;;;;;;;6.90;4.10;;;1.40;99.90;;;;;;5004001;28;20038;-31
2022/12/05 00:41:30;;;;;;;11.32;6.45;;;1.40;99.90;;;;;;5017373;28;20462;-30
2022/12/05 00:43:58;;;;;;;4.90;3.47;;;1.40;99.90;;;;;;5016849;28;20466;-32
2022/12/05 00:46:26;;;;;;;14.32;7.28;;;1.40;99.90;;;;;;5007466;28;20100;-31
2022/12/05 00:48:53;;;;;;;8.43;7.07;;;1.40;99.90;;;;;;5002892;28;20057;-36
2022/12/05 00:51:31;;;;;;;16.40;6.55;;;1.40;99.90;;;;;;5017041;28;20399;-32
2022/12/05 00:53:59;;;;;;;10.95;5.43;;;1.40;99.90;;;;;;5003697;28;20041;-33
2022/12/05 00:56:25;;;;;;;9.13;4.60;;;1.40;99.90;;;;;;5017388;28;20403;-33
2022/12/05 00:58:53;;;;;;;8.10;5.57;;;1.40;99.90;;;;;;5003602;28;20081;-31
2022/12/05 01:01:31;;;;;;;5.43;3.72;;;1.50;99.90;;;;;;5004141;28;20033;-33
2022/12/05 01:03:58;;;;;;;4.05;3.63;;;1.40;99.90;;;;;;5003029;28;20196;-31
2022/12/05 01:06:25;;;;;;;8.95;3.78;;;1.40;99.90;;;;;;5009171;28;20042;-33
2022/12/05 01:08:53;;;;;;;17.45;7.35;;;1.40;99.90;;;;;;5007718;28;20030;-34
2022/12/05 01:11:19;;;;;;;12.02;7.15;;;1.40;99.90;;;;;;5003763;28;20034;-37
2022/12/05 01:13:46;;;;;;;13.50;6.72;;;1.40;99.90;;;;;;5005674;28;20491;-35
2022/12/05 01:16:34;;;;;;;7.18;3.25;;;1.40;99.90;;;;;;5004624;28;20034;-32
2022/12/05 01:19:07;;;;;;;17.67;8.00;;;1.40;99.90;;;;;;5002073;28;20045;-32
2022/12/05 01:21:33;;;;;;;5.50;3.85;;;1.40;99.90;;;;;;5005267;28;20574;-33
2022/12/05 01:23:58;;;;;;;11.02;6.30;;;1.40;99.90;;;;;;5018857;28;20164;-34
2022/12/05 01:26:24;;;;;;;14.35;6.35;;;1.40;99.90;;;;;;5004031;28;20073;-35
2022/12/05 01:28:50;;;;;;;14.88;5.93;;;1.40;99.90;;;;;;5003468;28;20722;-31
2022/12/05 01:31:46;;;;;;;4.38;3.90;;;1.50;99.90;;;;;;5006974;28;20026;-34
2022/12/05 01:34:13;;;;;;;13.65;5.35;;;1.40;99.90;;;;;;5000788;28;20061;-32
2022/12/05 01:36:40;;;;;;;10.32;6.32;;;1.40;99.90;;;;;;5006030;28;20438;-32
2022/12/05 01:39:07;;;;;;;7.63;5.53;;;1.40;99.90;;;;;;5006062;28;20065;-33
2022/12/05 01:41:36;;;;;;;10.30;6.10;;;1.50;99.90;;;;;;5009934;28;20087;-32
2022/12/05 01:44:11;;;;;;;22.52;9.43;;;1.40;99.90;;;;;;5006534;28;20224;-31
2022/12/05 01:46:45;;;;;;;20.98;11.20;;;1.40;99.90;;;;;;5003741;28;20112;-34
2022/12/05 01:49:26;;;;;;;5.10;3.65;;;1.40;99.90;;;;;;5003963;28;20084;-32
2022/12/05 01:51:54;;;;;;;8.98;4.68;;;1.40;99.90;;;;;;5008801;28;20494;-33
2022/12/05 01:54:21;;;;;;;7.40;4.05;;;1.40;99.90;;;;;;5004502;28;20075;-32
2022/12/05 01:56:52;;;;;;;10.77;4.80;;;1.40;99.90;;;;;;5007575;28;20156;-32
2022/12/05 01:59:21;;;;;;;11.95;6.78;;;1.40;99.90;;;;;;5003535;28;20395;-33
2022/12/05 02:01:47;;;;;;;9.35;5.97;;;1.40;99.90;;;;;;5004296;28;20034;-33
2022/12/05 02:04:13;;;;;;;4.95;3.90;;;1.40;99.90;;;;;;5007225;28;20517;-32
2022/12/05 02:06:39;;;;;;;4.18;3.08;;;1.40;99.90;;;;;;5007969;28;20108;-32
2022/12/05 02:09:05;;;;;;;4.97;3.90;;;1.40;99.90;;;;;;5002217;28;20030;-38
2022/12/05 02:11:32;;;;;;;9.35;5.90;;;1.50;99.90;;;;;;5003170;28;20571;-34
2022/12/05 02:14:25;;;;;;;13.18;7.03;;;1.40;99.90;;;;;;5002950;28;20022;-34
2022/12/05 02:17:02;;;;;;;2.38;2.17;;;1.50;99.90;;;;;;5024413;28;20382;-32
2022/12/05 02:20:05;;;;;;;6.57;5.15;;;1.40;99.90;;;;;;5001484;28;20458;-32
2022/12/05 02:23:01;;;;;;;7.78;5.88;;;1.40;99.90;;;;;;5000540;28;20034;-34
2022/12/05 02:25:33;;;;;;;11.65;6.97;;;1.40;99.90;;;;;;5005812;28;20042;-33
2022/12/05 02:28:14;;;;;;;8.93;5.15;;;1.40;99.90;;;;;;5005768;28;20545;-33
2022/12/05 02:30:49;;;;;;;7.32;4.63;;;1.40;99.90;;;;;;5003773;28;20026;-32
2022/12/05 02:33:46;;;;;;;9.48;5.25;;;1.40;99.90;;;;;;5004255;28;20026;-32
2022/12/05 02:36:38;;;;;;;9.73;5.32;;;1.40;99.90;;;;;;5002043;28;20038;-31
2022/12/05 02:39:21;;;;;;;12.43;6.60;;;1.30;99.90;;;;;;5015616;28;20034;-36
2022/12/05 02:42:05;;;;;;;6.10;3.38;;;1.30;99.90;;;;;;5003962;28;20030;-34
2022/12/05 02:45:17;;;;;;;4.72;3.13;;;1.30;99.90;;;;;;5021685;28;20120;-34
2022/12/05 02:47:52;;;;;;;5.55;3.25;;;1.30;99.90;;;;;;5002891;28;20041;-33
2022/12/05 02:50:25;;;;;;;12.43;7.13;;;1.40;99.90;;;;;;5002252;28;20033;-32
2022/12/05 02:52:55;;;;;;;3.42;3.10;;;1.30;99.90;;;;;;4983363;28;20030;-33
2022/12/05 02:55:22;;;;;;;8.38;4.07;;;1.30;99.90;;;;;;5007508;28;20036;-31
2022/12/05 02:57:53;;;;;;;5.85;3.15;;;1.30;99.90;;;;;;5003188;28;20533;-32
2022/12/05 03:00:19;;;;;;;10.05;5.72;;;1.30;99.90;;;;;;5006266;28;20030;-32
2022/12/05 03:02:44;;;;;;;10.23;5.05;;;1.30;99.90;;;;;;5004958;28;20530;-32
2022/12/05 03:05:38;;;;;;;5.70;3.40;;;1.30;99.90;;;;;;5007570;28;20026;-32
2022/12/05 03:08:07;;;;;;;14.90;7.07;;;1.40;99.90;;;;;;5000199;28;20100;-33
2022/12/05 03:10:34;;;;;;;4.32;3.20;;;1.40;99.90;;;;;;5018690;28;20026;-38
2022/12/05 03:13:08;;;;;;;9.95;6.18;;;1.30;99.90;;;;;;5002634;28;20105;-32
2022/12/05 03:16:05;;;;;;;11.40;3.75;;;1.30;99.90;;;;;;5001401;28;20033;-32
2022/12/05 03:18:50;;;;;;;7.68;3.78;;;1.40;99.90;;;;;;5003867;28;21400;-31
2022/12/05 03:21:31;;;;;;;9.55;5.95;;;1.30;99.90;;;;;;5006820;28;20037;-31
2022/12/05 03:24:01;;;;;;;5.53;3.63;;;1.30;99.90;;;;;;5006610;28;20172;-33
2022/12/05 03:26:54;;;;;;;8.57;5.18;;;1.30;99.90;;;;;;5006677;28;20120;-32
2022/12/05 03:29:34;;;;;;;11.32;5.30;;;1.40;99.90;;;;;;5003941;28;20075;-32
2022/12/05 03:32:06;;;;;;;6.30;3.88;;;1.40;99.90;;;;;;5001600;28;20404;-32
2022/12/05 03:34:32;;;;;;;3.22;2.97;;;1.40;99.90;;;;;;5004045;28;20026;-32
2022/12/05 03:37:01;;;;;;;2.95;2.72;;;1.40;99.90;;;;;;5000055;28;20387;-32
2022/12/05 03:39:31;;;;;;;8.52;4.75;;;1.40;99.90;;;;;;5004281;28;20440;-35
2022/12/05 03:42:12;;;;;;;7.45;2.90;;;1.40;99.90;;;;;;5002003;28;20026;-34
2022/12/05 03:44:51;;;;;;;6.97;3.90;;;1.50;99.90;;;;;;5001590;28;20065;-32
2022/12/05 03:47:25;;;;;;;5.90;2.53;;;1.50;99.90;;;;;;5002977;28;20501;-31
2022/12/05 03:49:57;;;;;;;9.07;4.90;;;1.50;99.90;;;;;;5002882;28;20503;-32
2022/12/05 03:52:44;;;;;;;12.57;5.68;;;1.50;99.90;;;;;;5003818;28;20029;-32
2022/12/05 03:55:12;;;;;;;18.85;6.72;;;1.50;99.90;;;;;;5015474;28;20038;-32
2022/12/05 03:57:47;;;;;;;;;;;1.60;99.90;;;;;;5006460;28;20529;-33
2022/12/05 04:00:19;;;;;;;4.57;3.45;;;1.60;99.90;;;;;;5002858;28;20469;-33
2022/12/05 04:03:06;;;;;;;9.52;8.57;;;1.60;99.90;;;;;;4999819;28;20049;-31
2022/12/05 04:05:34;;;;;;;10.77;6.07;;;1.70;99.90;;;;;;4992057;28;20045;-32
2022/12/05 04:08:07;;;;;;;7.95;4.95;;;1.70;99.90;;;;;;4986763;28;20046;-32
2022/12/05 04:10:47;;;;;;;12.07;5.78;;;1.70;99.90;;;;;;4985776;28;20053;-35
2022/12/05 04:13:21;;;;;;;7.15;5.15;;;1.70;99.90;;;;;;4984064;28;20038;-33
2022/12/05 04:18:43;;;;;;;12.38;6.38;;;1.70;99.90;;;;;;4983562;28;20624;-33
2022/12/05 04:26:47;;;;;;;14.23;6.45;;;1.80;99.90;;;;;;4986254;28;20502;-33
2022/12/05 04:29:26;;;;;;;12.07;6.35;;;1.80;99.90;;;;;;4985486;28;20026;-36
2022/12/05 04:31:57;;;;;;;12.85;6.13;;;1.80;99.90;;;;;;4995443;28;20045;-35
2022/12/05 04:34:27;;;;;;;17.40;7.35;;;1.90;99.90;;;;;;4985148;28;20029;-36
2022/12/05 04:36:55;;;;;;;15.80;7.47;;;1.90;99.90;;;;;;4985829;28;20038;-37
2022/12/05 04:39:37;;;;;;;;;;;1.90;99.90;;;;;;4985246;28;20439;-32
2022/12/05 04:42:14;;;;;;;14.55;6.97;;;2.00;99.90;;;;;;4983193;28;20685;-32
2022/12/05 04:44:49;;;;;;;16.35;7.85;;;2.00;99.90;;;;;;4982239;28;20042;-36
2022/12/05 04:47:17;;;;;;;10.20;7.20;;;2.00;99.90;;;;;;4982577;28;20069;-31
2022/12/05 04:49:44;;;;;;;18.65;8.65;;;2.00;99.90;;;;;;4983251;28;20041;-35
2022/12/05 04:52:11;;;;;;;11.60;5.50;;;2.10;99.90;;;;;;4983661;28;20095;-32
2022/12/05 04:54:49;;;;;;;13.27;6.07;;;2.10;99.90;;;;;;4982310;28;20033;-34
2022/12/05 04:57:18;;;;;;;12.90;8.07;;;2.10;99.90;;;;;;4989722;28;20029;-30
2022/12/05 04:59:44;;;;;;;16.88;7.43;;;2.10;99.90;;;;;;4985211;28;20132;-32
2022/12/05 05:02:13;;;;;;;14.40;7.05;;;2.10;99.90;;;;;;4983195;28;20092;-34
2022/12/05 05:04:44;;;;;;;13.18;6.05;;;2.10;99.90;;;;;;4984164;28;20048;-33
2022/12/05 05:07:11;;;;;;;10.48;6.82;;;2.10;99.90;;;;;;4982839;28;20124;-37
2022/12/05 05:09:38;;;;;;;14.55;6.75;;;2.10;99.90;;;;;;4984895;28;20058;-34
2022/12/05 05:12:04;;;;;;;14.95;6.03;;;2.10;99.90;;;;;;4985821;28;21221;-30
2022/12/05 05:14:30;;;;;;;10.55;6.07;;;2.10;99.90;;;;;;4981823;28;20033;-32
2022/12/05 05:16:56;;;;;;;16.75;7.18;;;2.10;99.90;;;;;;4985585;28;20037;-32
2022/12/05 05:19:22;;;;;;;12.10;6.53;;;2.10;99.90;;;;;;4982476;28;20033;-33
2022/12/05 05:21:48;;;;;;;17.83;7.47;;;2.10;99.90;;;;;;4986114;28;20057;-34
2022/12/05 05:24:14;;;;;;;12.93;6.85;;;2.20;99.90;;;;;;4982933;28;20161;-36
2022/12/05 05:26:42;;;;;;;14.30;7.63;;;2.20;99.90;;;;;;4985472;28;20062;-34
2022/12/05 05:29:09;;;;;;;11.25;6.80;;;2.20;99.90;;;;;;4982626;28;20112;-35
2022/12/05 05:31:35;;;;;;;17.10;7.72;;;2.20;99.90;;;;;;4982809;28;20042;-33
2022/12/05 05:34:05;;;;;;;13.43;7.65;;;2.20;99.90;;;;;;4979881;28;20061;-31
2022/12/05 05:36:31;;;;;;;12.93;7.43;;;2.30;99.90;;;;;;4987178;28;20578;-36
2022/12/05 05:38:59;;;;;;;18.88;8.77;;;2.20;99.90;;;;;;4983398;28;20038;-33
2022/12/05 05:41:33;;;;;;;20.73;9.15;;;2.20;99.90;;;;;;4985092;28;20372;-33
2022/12/05 05:44:00;;;;;;;10.38;6.63;;;2.20;99.90;;;;;;4983882;28;20125;-34
2022/12/05 05:46:28;;;;;;;15.43;6.53;;;2.20;99.90;;;;;;4987062;28;20107;-36
2022/12/05 05:48:54;;;;;;;;;;;2.20;99.90;;;;;;4982683;28;20790;-35
2022/12/05 05:51:22;;;;;;;12.65;6.03;;;2.30;99.90;;;;;;4992514;28;19917;-33
2022/12/05 05:53:48;;;;;;;16.03;7.00;;;2.30;99.90;;;;;;4987083;28;20030;-31
2022/12/05 05:56:19;;;;;;;17.48;7.57;;;2.30;99.90;;;;;;4988822;28;20289;-32
2022/12/05 05:58:46;;;;;;;13.98;7.07;;;2.30;99.90;;;;;;4986819;28;20112;-33
2022/12/05 06:01:19;;;;;;;13.32;7.63;;;2.30;99.90;;;;;;4993066;28;20033;-31
2022/12/05 06:03:45;;;;;;;15.60;7.10;;;2.30;99.90;;;;;;4989296;28;20034;-35
2022/12/05 06:06:12;;;;;;;13.07;6.65;;;2.40;99.90;;;;;;4983526;28;20133;-37
2022/12/05 06:08:41;;;;;;;20.88;8.38;;;2.30;99.90;;;;;;4985179;28;20038;-32
2022/12/05 06:11:09;;;;;;;11.48;5.57;;;2.30;99.90;;;;;;4986370;28;20466;-35
2022/12/05 06:13:34;;;;;;;15.95;8.55;;;2.40;99.90;;;;;;4982728;28;20026;-34
2022/12/05 06:16:00;;;;;;;16.08;7.22;;;2.30;99.90;;;;;;4984635;28;20034;-35
2022/12/05 06:18:26;;;;;;;12.57;7.68;;;2.40;99.90;;;;;;4984649;28;20030;-32
2022/12/05 06:20:53;;;;;;;17.90;8.50;;;2.40;99.90;;;;;;4987775;28;20030;-37
2022/12/05 06:23:20;;;;;;;8.32;5.72;;;2.40;99.90;;;;;;4984595;28;20403;-36
2022/12/05 06:25:49;;;;;;;11.25;6.68;;;2.40;99.90;;;;;;4984018;28;20648;-35
2022/12/05 06:28:15;;;;;;;15.40;7.97;;;2.50;99.90;;;;;;4986382;28;20460;-36
2022/12/05 06:30:41;;;;;;;15.07;7.70;;;2.50;99.90;;;;;;4988060;28;20034;-33
2022/12/05 06:33:07;;;;;;;12.77;7.03;;;2.50;99.90;;;;;;4986809;28;20487;-32
2022/12/05 06:35:32;;;;;;;11.75;6.88;;;2.50;99.90;;;;;;4984388;28;20685;-32
2022/12/05 06:37:58;;;;;;;21.92;7.60;;;2.40;99.90;;;;;;4983668;28;20030;-37
2022/12/05 06:40:24;;;;;;;16.70;6.93;;;2.50;99.90;;;;;;4984897;28;20052;-34
2022/12/05 06:42:49;;;;;;;16.95;8.18;;;2.50;99.90;;;;;;4985371;28;20056;-33
2022/12/05 06:45:15;;;;;;;17.98;8.48;;;2.50;99.90;;;;;;4990317;28;20037;-35
2022/12/05 06:47:41;;;;;;;10.95;7.20;;;2.50;99.90;;;;;;5003276;28;20111;-33
2022/12/05 06:50:07;;;;;;;13.48;6.57;;;2.50;99.90;;;;;;5008266;28;20030;-32
2022/12/05 06:52:33;;;;;;;15.27;8.20;;;2.50;99.90;;;;;;5006562;28;20141;-31
2022/12/05 06:54:59;;;;;;;14.57;6.72;;;2.50;99.90;;;;;;5005170;28;20574;-31
2022/12/05 06:57:24;;;;;;;13.95;7.43;;;2.50;99.90;;;;;;5004999;28;20049;-31
2022/12/05 06:59:50;;;;;;;15.10;7.40;;;2.50;99.90;;;;;;5002158;28;20022;-32
2022/12/05 07:02:16;;;;;;;10.23;6.15;;;2.60;99.90;;;;;;4999378;28;20049;-31
2022/12/05 07:04:41;;;;;;;8.68;5.22;;;2.60;99.90;;;;;;5001903;28;20029;-31
2022/12/05 07:07:07;;;;;;;14.23;7.10;;;2.60;99.90;;;;;;5000752;28;20046;-31
2022/12/05 07:09:46;;;;;;;19.30;8.50;;;2.60;99.90;;;;;;5009647;28;20359;-33
2022/12/05 07:12:14;;;;;;;15.38;7.95;;;2.60;99.90;;;;;;4995848;28;20030;-33
2022/12/05 07:14:39;;;;;;;12.93;6.55;;;2.60;99.90;;;;;;5004915;28;20069;-31
2022/12/05 07:17:05;;;;;;;7.65;4.60;;;2.60;99.90;;;;;;4990243;28;21097;-34
2022/12/05 07:19:31;;;;;;;14.27;6.03;;;2.60;99.90;;;;;;4989148;28;20430;-33
2022/12/05 07:21:57;;;;;;;8.48;4.68;;;2.60;99.90;;;;;;4991542;28;20076;-34
2022/12/05 07:24:22;;;;;;;15.57;7.68;;;2.60;99.90;;;;;;4998724;28;20033;-32
2022/12/05 07:26:48;;;;;;;15.43;7.57;;;2.60;99.90;;;;;;5007887;28;20026;-31
2022/12/05 07:29:13;;;;;;;15.32;7.28;;;2.60;99.90;;;;;;5007329;28;20033;-32
2022/12/05 07:31:39;;;;;;;9.45;5.68;;;2.70;99.90;;;;;;5004235;28;20034;-31
2022/12/05 07:34:04;;;;;;;17.75;7.57;;;2.70;99.90;;;;;;5008091;28;20108;-31
2022/12/05 07:36:31;;;;;;;8.55;4.50;;;2.70;99.90;;;;;;5001452;28;20030;-30
2022/12/05 07:38:57;;;;;;;8.15;4.30;;;2.70;99.90;;;;;;5020360;28;20041;-31
2022/12/05 07:41:31;;;;;;;13.23;7.50;;;2.70;99.90;;;;;;5006323;28;20064;-31
2022/12/05 07:43:58;;;;;;;10.13;5.00;;;2.80;99.90;;;;;;5005469;28;20448;-32
2022/12/05 07:46:25;;;;;;;8.70;4.82;;;2.80;99.90;;;;;;5006309;28;20033;-31
2022/12/05 07:48:51;;;;;;;8.48;5.35;;;2.80;99.90;;;;;;5004864;28;20096;-31
2022/12/05 07:51:18;;;;;;;12.48;5.80;;;2.80;99.90;;;;;;5006337;28;20025;-30
2022/12/05 07:53:45;;;;;;;14.88;7.07;;;2.80;99.90;;;;;;5005805;28;20076;-30
2022/12/05 07:56:15;;;;;;;5.10;3.33;;;2.90;99.90;;;;;;5005952;28;20028;-31
2022/12/05 07:58:42;;;;;;;8.88;5.05;;;2.90;99.90;;;;;;5006125;28;20030;-31
2022/12/05 08:01:12;;;;;;;16.08;7.75;;;2.90;99.90;;;;;;5004436;28;20384;-31
2022/12/05 08:03:38;;;;;;;13.73;6.50;;;2.90;99.90;;;;;;5004543;28;20053;-31
2022/12/05 08:06:07;;;;;;;15.45;7.82;;;3.00;99.90;;;;;;5007905;28;20467;-32
2022/12/05 08:08:33;;;;;;;11.52;6.25;;;3.00;99.90;;;;;;5002479;28;20080;-31
2022/12/05 08:11:04;;;;;;;13.63;7.03;;;3.00;99.90;;;;;;5004839;28;20029;-31
2022/12/05 08:13:30;;;;;;;10.30;6.40;;;3.00;99.90;;;;;;5007597;28;20021;-31
2022/12/05 08:16:00;;;;;;;17.13;8.15;;;3.00;99.90;;;;;;5005850;28;20022;-30
2022/12/05 08:18:26;;;;;;;14.63;7.18;;;3.10;99.90;;;;;;5007666;28;20022;-31
2022/12/05 08:20:51;;;;;;;14.80;7.38;;;3.10;99.90;;;;;;5007587;28;20037;-31
2022/12/05 08:23:17;;;;;;;17.88;8.73;;;3.10;99.90;;;;;;5002416;28;20507;-31
2022/12/05 08:25:42;;;;;;;15.88;7.72;;;3.20;99.90;;;;;;5004932;28;20061;-32
2022/12/05 08:28:08;;;;;;;14.48;6.55;;;3.20;99.90;;;;;;5006794;28;20551;-31
2022/12/05 08:30:33;;;;;;;12.20;6.78;;;3.20;99.90;;;;;;5007678;28;20117;-30
2022/12/05 08:32:59;;;;;;;12.18;6.35;;;3.30;99.90;;;;;;5001767;28;20018;-32
2022/12/05 08:35:25;;;;;;;14.20;7.57;;;3.30;99.90;;;;;;5004396;28;20022;-31
2022/12/05 08:37:51;;;;;;;20.10;8.90;;;3.30;99.90;;;;;;5004169;28;20038;-30
2022/12/05 08:40:17;;;;;;;12.35;6.80;;;3.40;99.90;;;;;;5008702;28;20380;-31
2022/12/05 08:42:43;;;;;;;14.77;7.78;;;3.40;99.90;;;;;;5003158;28;20030;-31
2022/12/05 08:45:08;;;;;;;19.95;9.02;;;3.50;99.90;;;;;;5002045;28;20042;-31
2022/12/05 08:47:35;;;;;;;13.05;6.85;;;3.50;99.90;;;;;;5005512;28;20034;-35
2022/12/05 08:50:00;;;;;;;16.15;8.25;;;3.50;99.90;;;;;;5005382;28;20080;-31
2022/12/05 08:52:26;;;;;;;14.02;7.10;;;3.50;99.90;;;;;;5002753;28;20120;-31
2022/12/05 08:54:52;;;;;;;17.45;8.38;;;3.60;99.90;;;;;;5008610;28;20014;-33
2022/12/05 08:57:17;;;;;;;10.35;5.72;;;3.60;99.90;;;;;;5004890;28;20030;-31
2022/12/05 08:59:43;;;;;;;16.08;7.30;;;3.60;99.90;;;;;;5006352;28;20113;-31
2022/12/05 09:02:09;;;;;;;15.05;7.90;;;3.60;99.90;;;;;;5007538;28;20523;-34
2022/12/05 09:04:35;;;;;;;14.10;6.32;;;3.70;99.90;;;;;;5005649;28;20045;-34
2022/12/05 09:07:02;;;;;;;15.73;7.45;;;3.70;99.90;;;;;;5004820;28;20499;-33
2022/12/05 09:09:29;;;;;;;17.20;8.40;;;3.70;99.90;;;;;;5006863;28;20399;-33
2022/12/05 09:11:56;;;;;;;12.95;7.13;;;3.70;99.90;;;;;;5005449;28;20022;-32
2022/12/05 09:14:23;;;;;;;18.70;8.13;;;3.70;99.90;;;;;;5005848;28;20057;-31
2022/12/05 09:16:48;;;;;;;13.93;7.07;;;3.70;99.90;;;;;;5007896;28;20108;-31
2022/12/05 09:19:23;;;;;;;16.52;7.10;;;3.70;99.90;;;;;;5019445;28;20073;-31
2022/12/05 09:21:49;;;;;;;13.23;6.47;;;3.70;99.90;;;;;;5006819;28;20165;-31
2022/12/05 09:24:14;;;;;;;12.05;7.03;;;3.80;99.90;;;;;;5006650;28;20570;-31
2022/12/05 09:26:41;;;;;;;18.05;8.73;;;3.80;99.90;;;;;;5009147;28;20030;-31
2022/12/05 09:29:08;;;;;;;15.70;8.30;;;3.80;99.90;;;;;;5022056;28;20518;-32
2022/12/05 09:31:34;;;;;;;11.82;6.70;;;3.80;99.90;;;;;;5003153;28;20026;-30
2022/12/05 09:34:00;;;;;;;13.57;5.72;;;3.80;99.90;;;;;;5013065;28;20030;-31
2022/12/05 09:36:28;;;;;;;9.45;6.28;;;3.80;99.90;;;;;;5010660;28;20377;-31
2022/12/05 09:38:58;;;;;;;8.77;6.28;;;3.80;99.90;;;;;;5023112;28;20587;-31
2022/12/05 09:45:04;;;;;;;13.15;7.05;;;3.80;99.90;;;;;;5005505;28;20096;-31
2022/12/05 09:47:38;;;;;;;12.23;6.65;;;3.90;99.90;;;;;;5004589;28;20034;-31
2022/12/05 09:50:28;;;;;;;14.52;7.28;;;3.90;99.90;;;;;;5007288;28;20030;-31
2022/12/05 09:53:08;;;;;;;17.63;7.93;;;3.90;99.90;;;;;;5010121;28;20026;-30
2022/12/05 09:55:51;;;;;;;16.10;8.07;;;4.00;99.90;;;;;;5005079;28;20037;-32
2022/12/05 09:58:28;;;;;;;20.48;8.27;;;4.00;99.90;;;;;;5005747;28;20087;-32
2022/12/05 10:01:10;;;;;;;16.88;7.10;;;4.10;99.90;;;;;;5006901;28;20096;-31
2022/12/05 10:04:07;;;;;;;13.52;7.38;;;4.10;99.90;;;;;;5023566;28;20483;-32
2022/12/05 10:06:55;;;;;;;14.00;6.83;;;4.10;99.90;;;;;;5004358;28;20551;-30
2022/12/05 10:09:39;;;;;;;13.32;6.95;;;4.20;99.90;;;;;;5007472;28;20026;-31
2022/12/05 10:12:26;;;;;;;5.38;3.90;;;4.20;99.90;;;;;;5006903;28;20034;-33
2022/12/05 10:15:10;;;;;;;15.70;7.22;;;4.10;99.90;;;;;;5006211;28;20022;-32
2022/12/05 10:17:39;;;;;;;17.20;8.35;;;4.20;99.90;;;;;;5010432;28;20061;-31
2022/12/05 10:20:17;;;;;;;17.90;7.95;;;4.20;99.90;;;;;;5008215;28;20066;-32
2022/12/05 10:22:58;;;;;;;15.70;7.57;;;4.30;99.90;;;;;;5006003;28;20527;-32
2022/12/05 10:25:26;;;;;;;12.50;6.68;;;4.30;99.90;;;;;;5006338;28;20038;-31
2022/12/05 10:27:56;;;;;;;17.60;8.55;;;4.30;99.90;;;;;;5008804;28;20040;-31
2022/12/05 10:30:25;;;;;;;20.42;7.95;;;4.30;99.90;;;;;;5004897;28;20392;-30
2022/12/05 10:32:52;;;;;;;;;;;4.30;99.90;;;;;;5006294;28;20081;-30
2022/12/05 10:35:25;;;;;;;15.38;6.78;;;4.30;99.90;;;;;;5008434;28;19913;-32
2022/12/05 10:37:57;;;;;;;11.27;6.65;;;4.30;99.90;;;;;;5008198;28;20041;-31
2022/12/05 10:40:26;;;;;;;14.48;6.90;;;4.40;99.90;;;;;;5005501;28;20025;-30
2022/12/05 10:42:51;;;;;;;12.18;5.90;;;4.40;99.90;;;;;;5006610;28;20044;-32
2022/12/05 10:45:21;;;;;;;13.95;7.90;;;4.40;99.90;;;;;;5006634;28;20034;-30
2022/12/05 10:47:47;;;;;;;16.27;7.72;;;4.40;99.90;;;;;;5005972;28;20029;-33
2022/12/05 10:50:21;;;;;;;14.50;8.10;;;4.40;99.90;;;;;;5002798;28;20065;-33
2022/12/05 10:52:47;;;;;;;15.40;7.93;;;4.50;99.90;;;;;;5006174;28;20486;-31
2022/12/05 10:55:16;;;;;;;16.45;7.80;;;4.60;99.90;;;;;;5003346;28;20109;-32
2022/12/05 10:57:45;;;;;;;7.07;4.78;;;4.60;99.90;;;;;;5002289;28;20092;-33
2022/12/05 11:00:12;;;;;;;;;;;4.60;99.90;;;;;;5006995;28;20037;-31
2022/12/05 11:02:39;;;;;;;10.25;6.65;;;4.50;99.90;;;;;;5003414;28;19913;-32
2022/12/05 11:05:05;;;;;;;14.80;7.45;;;4.60;99.90;;;;;;5006577;28;20042;-32
2022/12/05 11:07:42;;;;;;;10.65;6.32;;;4.60;99.90;;;;;;5007515;28;20445;-31
2022/12/05 11:10:27;;;;;;;14.38;6.05;;;4.60;99.90;;;;;;5006290;28;20021;-32
2022/12/05 11:12:57;;;;;;;14.02;7.63;;;4.70;99.90;;;;;;5003818;28;20030;-33
2022/12/05 11:15:26;;;;;;;10.27;6.60;;;4.70;99.90;;;;;;5005839;28;20026;-31
2022/12/05 11:17:54;;;;;;;12.02;6.93;;;4.70;99.90;;;;;;5006273;28;20080;-32
2022/12/05 11:20:20;;;;;;;9.63;5.88;;;4.60;99.90;;;;;;5005040;28;20021;-38
2022/12/05 11:22:55;;;;;;;15.15;7.55;;;4.70;99.90;;;;;;5016332;28;20502;-32
2022/12/05 11:25:34;;;;;;;10.55;6.40;;;4.70;99.90;;;;;;5006232;28;20042;-31
2022/12/05 11:28:20;;;;;;;11.43;6.57;;;4.70;99.90;;;;;;5002789;28;20442;-30
2022/12/05 11:31:03;;;;;;;13.63;6.50;;;4.70;99.90;;;;;;4991645;28;20057;-32
2022/12/05 11:33:34;;;;;;;12.77;7.18;;;4.70;99.90;;;;;;4998593;28;21703;-32
2022/12/05 11:36:21;;;;;;;11.52;6.80;;;4.70;99.90;;;;;;5005372;28;20414;-31
2022/12/05 11:38:47;;;;;;;12.73;6.95;;;4.70;99.90;;;;;;5005419;28;20026;-31
2022/12/05 11:41:42;;;;;;;14.25;7.97;;;4.70;99.90;;;;;;5007815;28;20037;-32
2022/12/05 11:44:26;;;;;;;14.40;6.65;;;4.70;99.90;;;;;;5023051;28;20407;-30
2022/12/05 11:46:58;;;;;;;13.02;7.05;;;4.70;99.90;;;;;;5007764;28;20553;-30
2022/12/05 11:50:02;;;;;;;13.60;6.68;;;4.80;99.90;;;;;;5023084;28;20458;-31
2022/12/05 11:53:12;;;;;;;17.88;6.82;;;4.80;99.90;;;;;;5019773;28;20045;-31
2022/12/05 11:55:40;;;;;;;14.48;7.53;;;4.80;99.90;;;;;;4963830;28;20534;-31
2022/12/05 11:58:17;;;;;;;11.32;6.20;;;4.80;99.90;;;;;;4964443;28;20638;-32
2022/12/05 12:01:17;;;;;;;11.25;5.38;;;4.80;99.90;;;;;;4986644;28;20037;-35
2022/12/05 12:04:02;;;;;;;10.98;6.85;;;4.80;99.90;;;;;;5004966;28;20053;-32
2022/12/05 12:06:36;;;;;;;15.65;6.65;;;4.80;99.90;;;;;;5002464;28;20057;-30
2022/12/05 12:09:16;;;;;;;12.30;6.78;;;4.80;99.90;;;;;;5006136;28;20121;-31
2022/12/05 12:12:01;;;;;;;10.00;6.15;;;4.90;99.90;;;;;;5004500;28;20030;-33
2022/12/05 12:14:47;;;;;;;7.30;4.70;;;4.90;99.90;;;;;;5003687;28;20060;-32
2022/12/05 12:17:46;;;;;;;6.97;4.65;;;4.80;99.90;;;;;;5014421;28;20506;-32
2022/12/05 12:20:18;;;;;;;7.22;5.15;;;4.90;99.90;;;;;;5005177;28;20064;-32
2022/12/05 12:22:55;;;;;;;9.75;5.68;;;4.90;99.90;;;;;;5004594;28;20034;-31
2022/12/05 12:25:39;;;;;;;6.35;4.22;;;4.90;99.90;;;;;;5003021;28;20029;-32
2022/12/05 12:28:20;;;;;;;8.57;4.60;;;4.80;99.90;;;;;;5005610;28;20486;-32
2022/12/05 12:31:22;;;;;;;8.32;5.07;;;4.90;99.90;;;;;;5005004;28;20099;-33
2022/12/05 12:33:56;;;;;;;6.93;4.28;;;4.90;99.90;;;;;;5003300;28;20057;-30
2022/12/05 12:36:40;;;;;;;4.55;3.65;;;4.80;99.90;;;;;;5018170;28;20028;-31
2022/12/05 12:39:35;;;;;;;4.65;3.28;;;4.80;99.90;;;;;;5004177;28;22207;-30
2022/12/05 12:42:15;;;;;;;5.63;3.00;;;4.80;99.90;;;;;;5001608;28;20026;-31
2022/12/05 12:45:19;;;;;;;6.22;2.50;;;4.80;99.90;;;;;;5006703;28;20059;-30
2022/12/05 12:47:59;;;;;;;3.67;2.85;;;4.80;99.90;;;;;;5005289;28;20072;-30
2022/12/05 12:50:32;;;;;;;4.38;2.97;;;4.70;99.90;;;;;;5004575;28;20026;-31
2022/12/05 12:53:39;;;;;;;3.75;2.00;;;4.80;99.90;;;;;;5004744;28;20041;-31
2022/12/05 12:56:26;;;;;;;3.50;2.73;;;4.70;99.90;;;;;;5005693;28;20034;-33
2022/12/05 12:59:12;;;;;;;5.40;3.60;;;4.70;99.90;;;;;;5005568;28;20487;-33
2022/12/05 13:02:10;;;;;;;5.20;3.38;;;4.80;99.90;;;;;;5006786;28;20037;-38
2022/12/05 13:04:46;;;;;;;4.97;3.13;;;4.70;99.90;;;;;;5016961;28;20041;-33
2022/12/05 13:07:24;;;;;;;5.60;2.55;;;4.70;99.90;;;;;;5006778;28;20141;-31
2022/12/05 13:10:21;;;;;;;2.33;2.15;;;4.70;99.90;;;;;;5009021;28;20026;-34
2022/12/05 13:12:49;;;;;;;6.22;2.75;;;4.70;99.90;;;;;;5006338;28;20086;-32
2022/12/05 13:15:26;;;;;;;4.00;3.60;;;4.70;99.90;;;;;;5005489;28;20056;-31
2022/12/05 13:17:53;;;;;;;3.97;2.72;;;4.70;99.90;;;;;;5006747;28;20051;-32
2022/12/05 13:20:23;;;;;;;4.70;2.83;;;4.70;99.90;;;;;;5005149;28;20639;-34
2022/12/05 13:22:51;;;;;;;4.38;2.47;;;4.70;99.90;;;;;;5008090;28;20025;-32
2022/12/05 13:25:20;;;;;;;4.35;3.20;;;4.60;99.90;;;;;;5006817;28;20025;-32
2022/12/05 13:28:01;;;;;;;5.82;3.08;;;4.60;99.90;;;;;;5024070;28;20064;-32
2022/12/05 13:30:28;;;;;;;4.05;2.30;;;4.60;99.90;;;;;;5006996;28;20590;-35
2022/12/05 13:32:59;;;;;;;4.22;2.70;;;4.60;99.90;;;;;;5007686;28;20014;-32